sensor_id;sensor_type;location;lat;lon;timestamp;P1;durP1;ratioP1;P2;durP2;ratioP2
73550;SDS011;61816;53.582;10.096;2022-09-09T00:02:22;394.95;;;100.13;;
73550;SDS011;61816;53.582;10.096;2022-09-09T00:04:59;347.63;;;86.50;;
73550;SDS011;61816;53.582;10.096;2022-09-09T00:07:46;642.50;;;119.63;;
73550;SDS011;61816;53.582;10.096;2022-09-09T00:21:17;937.22;;;132.15;;
73550;SDS011;61816;53.582;10.096;2022-09-09T00:29:25;438.58;;;83.82;;
73550;SDS011;61816;53.582;10.096;2022-09-09T00:32:00;678.95;;;102.07;;
73550;SDS011;61816;53.582;10.096;2022-09-09T00:34:36;1059.68;;;132.48;;
73550;SDS011;61816;53.582;10.096;2022-09-09T00:37:07;715.53;;;109.15;;
73550;SDS011;61816;53.582;10.096;2022-09-09T00:39:46;460.85;;;85.40;;
73550;SDS011;61816;53.582;10.096;2022-09-09T00:50:42;742.10;;;104.70;;
73550;SDS011;61816;53.582;10.096;2022-09-09T00:58:35;505.17;;;85.82;;
73550;SDS011;61816;53.582;10.096;2022-09-09T01:01:03;710.13;;;97.03;;
73550;SDS011;61816;53.582;10.096;2022-09-09T01:08:43;599.78;;;92.80;;
73550;SDS011;61816;53.582;10.096;2022-09-09T01:11:21;454.15;;;74.82;;
73550;SDS011;61816;53.582;10.096;2022-09-09T01:16:20;381.83;;;74.73;;
73550;SDS011;61816;53.582;10.096;2022-09-09T01:18:46;473.35;;;75.45;;
73550;SDS011;61816;53.582;10.096;2022-09-09T01:24:08;458.02;;;86.05;;
73550;SDS011;61816;53.582;10.096;2022-09-09T01:26:42;334.63;;;73.88;;
73550;SDS011;61816;53.582;10.096;2022-09-09T01:29:11;425.70;;;79.22;;
73550;SDS011;61816;53.582;10.096;2022-09-09T01:31:51;408.23;;;81.65;;
73550;SDS011;61816;53.582;10.096;2022-09-09T01:34:22;439.88;;;79.50;;
73550;SDS011;61816;53.582;10.096;2022-09-09T01:39:31;492.13;;;86.07;;
73550;SDS011;61816;53.582;10.096;2022-09-09T01:41:58;414.67;;;78.72;;
73550;SDS011;61816;53.582;10.096;2022-09-09T01:44:24;459.52;;;78.93;;
73550;SDS011;61816;53.582;10.096;2022-09-09T01:46:51;417.98;;;78.90;;
73550;SDS011;61816;53.582;10.096;2022-09-09T01:49:17;445.27;;;77.75;;
73550;SDS011;61816;53.582;10.096;2022-09-09T01:51:42;345.05;;;72.07;;
73550;SDS011;61816;53.582;10.096;2022-09-09T01:54:11;530.70;;;79.28;;
73550;SDS011;61816;53.582;10.096;2022-09-09T01:56:47;357.70;;;70.70;;
73550;SDS011;61816;53.582;10.096;2022-09-09T01:59:31;533.53;;;84.03;;
73550;SDS011;61816;53.582;10.096;2022-09-09T02:02:12;497.98;;;79.90;;
73550;SDS011;61816;53.582;10.096;2022-09-09T02:05:26;576.00;;;83.20;;
73550;SDS011;61816;53.582;10.096;2022-09-09T02:07:57;418.08;;;79.15;;
73550;SDS011;61816;53.582;10.096;2022-09-09T02:10:45;500.88;;;85.57;;
73550;SDS011;61816;53.582;10.096;2022-09-09T02:13:19;377.80;;;75.43;;
73550;SDS011;61816;53.582;10.096;2022-09-09T02:15:52;438.80;;;77.25;;
73550;SDS011;61816;53.582;10.096;2022-09-09T02:18:35;530.05;;;78.40;;
73550;SDS011;61816;53.582;10.096;2022-09-09T02:21:00;567.15;;;86.03;;
73550;SDS011;61816;53.582;10.096;2022-09-09T02:23:28;502.80;;;84.63;;
73550;SDS011;61816;53.582;10.096;2022-09-09T02:25:55;510.70;;;82.80;;
73550;SDS011;61816;53.582;10.096;2022-09-09T02:28:23;461.60;;;69.80;;
73550;SDS011;61816;53.582;10.096;2022-09-09T02:30:53;443.63;;;78.93;;
73550;SDS011;61816;53.582;10.096;2022-09-09T02:33:23;493.60;;;74.95;;
73550;SDS011;61816;53.582;10.096;2022-09-09T02:35:52;496.05;;;82.47;;
73550;SDS011;61816;53.582;10.096;2022-09-09T02:38:19;362.73;;;69.43;;
73550;SDS011;61816;53.582;10.096;2022-09-09T02:40:47;512.63;;;74.13;;
73550;SDS011;61816;53.582;10.096;2022-09-09T02:43:14;537.97;;;79.80;;
73550;SDS011;61816;53.582;10.096;2022-09-09T02:45:42;497.63;;;71.38;;
73550;SDS011;61816;53.582;10.096;2022-09-09T02:48:21;425.58;;;74.95;;
73550;SDS011;61816;53.582;10.096;2022-09-09T02:51:05;499.38;;;80.43;;
73550;SDS011;61816;53.582;10.096;2022-09-09T02:56:29;405.40;;;70.45;;
73550;SDS011;61816;53.582;10.096;2022-09-09T02:58:58;396.58;;;73.85;;
73550;SDS011;61816;53.582;10.096;2022-09-09T03:01:24;615.38;;;84.80;;
73550;SDS011;61816;53.582;10.096;2022-09-09T03:03:50;303.08;;;63.35;;
73550;SDS011;61816;53.582;10.096;2022-09-09T03:06:15;476.60;;;68.75;;
73550;SDS011;61816;53.582;10.096;2022-09-09T03:08:41;451.48;;;70.70;;
73550;SDS011;61816;53.582;10.096;2022-09-09T03:11:07;521.28;;;73.53;;
73550;SDS011;61816;53.582;10.096;2022-09-09T03:13:32;384.05;;;67.07;;
73550;SDS011;61816;53.582;10.096;2022-09-09T03:15:58;349.63;;;65.60;;
73550;SDS011;61816;53.582;10.096;2022-09-09T03:18:24;405.33;;;68.72;;
73550;SDS011;61816;53.582;10.096;2022-09-09T03:20:50;426.98;;;74.68;;
73550;SDS011;61816;53.582;10.096;2022-09-09T03:23:16;401.52;;;67.13;;
73550;SDS011;61816;53.582;10.096;2022-09-09T03:25:48;463.05;;;75.57;;
73550;SDS011;61816;53.582;10.096;2022-09-09T03:28:14;345.52;;;68.65;;
73550;SDS011;61816;53.582;10.096;2022-09-09T03:30:40;431.27;;;71.57;;
73550;SDS011;61816;53.582;10.096;2022-09-09T03:33:05;376.02;;;76.15;;
73550;SDS011;61816;53.582;10.096;2022-09-09T03:35:31;362.23;;;72.43;;
73550;SDS011;61816;53.582;10.096;2022-09-09T03:37:56;429.25;;;77.65;;
73550;SDS011;61816;53.582;10.096;2022-09-09T03:40:22;348.45;;;70.25;;
73550;SDS011;61816;53.582;10.096;2022-09-09T03:42:47;299.73;;;63.97;;
73550;SDS011;61816;53.582;10.096;2022-09-09T03:45:13;352.67;;;67.47;;
73550;SDS011;61816;53.582;10.096;2022-09-09T03:47:39;251.57;;;63.95;;
73550;SDS011;61816;53.582;10.096;2022-09-09T03:50:05;358.02;;;72.43;;
73550;SDS011;61816;53.582;10.096;2022-09-09T03:52:37;395.48;;;70.80;;
73550;SDS011;61816;53.582;10.096;2022-09-09T03:55:03;383.85;;;73.85;;
73550;SDS011;61816;53.582;10.096;2022-09-09T03:57:30;483.05;;;77.25;;
73550;SDS011;61816;53.582;10.096;2022-09-09T03:59:56;460.88;;;72.75;;
73550;SDS011;61816;53.582;10.096;2022-09-09T04:02:23;393.35;;;76.75;;
73550;SDS011;61816;53.582;10.096;2022-09-09T04:04:48;372.27;;;69.85;;
73550;SDS011;61816;53.582;10.096;2022-09-09T04:07:13;401.90;;;73.97;;
73550;SDS011;61816;53.582;10.096;2022-09-09T04:09:39;340.08;;;73.90;;
73550;SDS011;61816;53.582;10.096;2022-09-09T04:12:04;230.52;;;61.22;;
73550;SDS011;61816;53.582;10.096;2022-09-09T04:14:31;243.88;;;62.60;;
73550;SDS011;61816;53.582;10.096;2022-09-09T04:16:57;308.90;;;65.43;;
73550;SDS011;61816;53.582;10.096;2022-09-09T04:19:23;196.82;;;56.92;;
73550;SDS011;61816;53.582;10.096;2022-09-09T04:21:48;164.75;;;47.83;;
73550;SDS011;61816;53.582;10.096;2022-09-09T04:24:16;160.27;;;49.65;;
73550;SDS011;61816;53.582;10.096;2022-09-09T04:26:42;236.45;;;60.72;;
73550;SDS011;61816;53.582;10.096;2022-09-09T04:29:08;232.43;;;56.38;;
73550;SDS011;61816;53.582;10.096;2022-09-09T04:31:33;210.20;;;58.85;;
73550;SDS011;61816;53.582;10.096;2022-09-09T04:33:59;170.98;;;55.53;;
73550;SDS011;61816;53.582;10.096;2022-09-09T04:36:30;268.83;;;65.63;;
73550;SDS011;61816;53.582;10.096;2022-09-09T04:38:56;151.98;;;53.92;;
73550;SDS011;61816;53.582;10.096;2022-09-09T04:41:22;180.20;;;57.20;;
73550;SDS011;61816;53.582;10.096;2022-09-09T04:43:47;229.55;;;62.00;;
73550;SDS011;61816;53.582;10.096;2022-09-09T04:46:13;172.85;;;55.55;;
73550;SDS011;61816;53.582;10.096;2022-09-09T04:48:38;163.15;;;56.88;;
73550;SDS011;61816;53.582;10.096;2022-09-09T04:51:05;169.43;;;53.85;;
73550;SDS011;61816;53.582;10.096;2022-09-09T04:53:32;154.63;;;54.65;;
73550;SDS011;61816;53.582;10.096;2022-09-09T04:56:04;134.30;;;49.45;;
73550;SDS011;61816;53.582;10.096;2022-09-09T04:58:30;120.78;;;49.55;;
73550;SDS011;61816;53.582;10.096;2022-09-09T05:01:29;117.35;;;47.47;;
73550;SDS011;61816;53.582;10.096;2022-09-09T05:03:49;147.48;;;55.45;;
73550;SDS011;61816;53.582;10.096;2022-09-09T05:06:16;142.60;;;50.45;;
73550;SDS011;61816;53.582;10.096;2022-09-09T05:08:43;119.53;;;47.17;;
73550;SDS011;61816;53.582;10.096;2022-09-09T05:11:13;105.03;;;43.15;;
73550;SDS011;61816;53.582;10.096;2022-09-09T05:13:43;93.30;;;41.95;;
73550;SDS011;61816;53.582;10.096;2022-09-09T05:16:09;132.73;;;50.55;;
73550;SDS011;61816;53.582;10.096;2022-09-09T05:18:36;90.53;;;40.00;;
73550;SDS011;61816;53.582;10.096;2022-09-09T05:21:05;98.65;;;43.30;;
73550;SDS011;61816;53.582;10.096;2022-09-09T05:23:32;99.13;;;42.78;;
73550;SDS011;61816;53.582;10.096;2022-09-09T05:25:59;86.18;;;37.47;;
73550;SDS011;61816;53.582;10.096;2022-09-09T05:28:25;64.22;;;33.53;;
73550;SDS011;61816;53.582;10.096;2022-09-09T05:30:58;81.47;;;37.25;;
73550;SDS011;61816;53.582;10.096;2022-09-09T05:33:26;82.70;;;37.97;;
73550;SDS011;61816;53.582;10.096;2022-09-09T05:35:56;67.50;;;33.70;;
73550;SDS011;61816;53.582;10.096;2022-09-09T05:38:25;97.80;;;40.58;;
73550;SDS011;61816;53.582;10.096;2022-09-09T05:40:51;66.53;;;32.47;;
73550;SDS011;61816;53.582;10.096;2022-09-09T05:43:18;81.43;;;37.22;;
73550;SDS011;61816;53.582;10.096;2022-09-09T05:45:45;84.72;;;38.50;;
73550;SDS011;61816;53.582;10.096;2022-09-09T05:48:13;71.38;;;35.30;;
73550;SDS011;61816;53.582;10.096;2022-09-09T05:50:42;68.97;;;32.90;;
73550;SDS011;61816;53.582;10.096;2022-09-09T05:53:08;63.40;;;34.13;;
73550;SDS011;61816;53.582;10.096;2022-09-09T05:55:35;71.60;;;35.25;;
73550;SDS011;61816;53.582;10.096;2022-09-09T05:58:00;49.75;;;26.95;;
73550;SDS011;61816;53.582;10.096;2022-09-09T06:00:26;43.67;;;24.65;;
73550;SDS011;61816;53.582;10.096;2022-09-09T06:02:52;51.63;;;27.95;;
73550;SDS011;61816;53.582;10.096;2022-09-09T06:05:18;55.78;;;27.25;;
73550;SDS011;61816;53.582;10.096;2022-09-09T06:07:44;48.83;;;25.00;;
73550;SDS011;61816;53.582;10.096;2022-09-09T06:10:10;46.03;;;23.92;;
73550;SDS011;61816;53.582;10.096;2022-09-09T06:12:38;39.92;;;21.13;;
73550;SDS011;61816;53.582;10.096;2022-09-09T06:15:04;43.97;;;22.50;;
73550;SDS011;61816;53.582;10.096;2022-09-09T06:17:30;43.20;;;23.15;;
73550;SDS011;61816;53.582;10.096;2022-09-09T06:19:55;41.92;;;22.20;;
73550;SDS011;61816;53.582;10.096;2022-09-09T06:22:21;36.60;;;20.35;;
73550;SDS011;61816;53.582;10.096;2022-09-09T06:24:46;34.55;;;21.13;;
73550;SDS011;61816;53.582;10.096;2022-09-09T06:27:12;36.67;;;20.90;;
73550;SDS011;61816;53.582;10.096;2022-09-09T06:29:38;28.17;;;18.60;;
73550;SDS011;61816;53.582;10.096;2022-09-09T06:32:04;33.42;;;21.33;;
73550;SDS011;61816;53.582;10.096;2022-09-09T06:34:29;37.72;;;21.10;;
73550;SDS011;61816;53.582;10.096;2022-09-09T06:36:55;36.75;;;22.20;;
73550;SDS011;61816;53.582;10.096;2022-09-09T06:39:22;29.33;;;18.75;;
73550;SDS011;61816;53.582;10.096;2022-09-09T06:41:48;33.92;;;20.55;;
73550;SDS011;61816;53.582;10.096;2022-09-09T06:44:14;31.67;;;17.70;;
73550;SDS011;61816;53.582;10.096;2022-09-09T06:46:40;29.20;;;18.23;;
73550;SDS011;61816;53.582;10.096;2022-09-09T06:49:07;31.90;;;18.05;;
73550;SDS011;61816;53.582;10.096;2022-09-09T06:51:34;31.17;;;18.00;;
73550;SDS011;61816;53.582;10.096;2022-09-09T06:54:01;29.65;;;17.00;;
73550;SDS011;61816;53.582;10.096;2022-09-09T06:56:37;25.80;;;18.08;;
73550;SDS011;61816;53.582;10.096;2022-09-09T06:59:07;27.35;;;16.27;;
73550;SDS011;61816;53.582;10.096;2022-09-09T07:01:36;29.15;;;16.23;;
73550;SDS011;61816;53.582;10.096;2022-09-09T07:04:04;25.58;;;15.75;;
73550;SDS011;61816;53.582;10.096;2022-09-09T07:06:35;28.25;;;16.88;;
73550;SDS011;61816;53.582;10.096;2022-09-09T07:09:09;33.88;;;17.00;;
73550;SDS011;61816;53.582;10.096;2022-09-09T07:11:40;26.90;;;14.93;;
73550;SDS011;61816;53.582;10.096;2022-09-09T07:14:10;25.73;;;15.05;;
73550;SDS011;61816;53.582;10.096;2022-09-09T07:16:39;24.60;;;12.70;;
73550;SDS011;61816;53.582;10.096;2022-09-09T07:19:07;22.73;;;13.88;;
73550;SDS011;61816;53.582;10.096;2022-09-09T07:21:33;30.98;;;14.25;;
73550;SDS011;61816;53.582;10.096;2022-09-09T07:23:59;19.92;;;11.77;;
73550;SDS011;61816;53.582;10.096;2022-09-09T07:26:25;25.95;;;13.25;;
73550;SDS011;61816;53.582;10.096;2022-09-09T07:28:52;21.95;;;13.05;;
73550;SDS011;61816;53.582;10.096;2022-09-09T07:31:19;30.67;;;13.30;;
73550;SDS011;61816;53.582;10.096;2022-09-09T07:36:19;22.65;;;10.23;;
73550;SDS011;61816;53.582;10.096;2022-09-09T07:38:51;20.48;;;11.02;;
73550;SDS011;61816;53.582;10.096;2022-09-09T07:41:22;24.83;;;11.52;;
73550;SDS011;61816;53.582;10.096;2022-09-09T07:43:53;18.27;;;9.68;;
73550;SDS011;61816;53.582;10.096;2022-09-09T07:46:19;22.40;;;9.73;;
73550;SDS011;61816;53.582;10.096;2022-09-09T07:48:47;11.60;;;8.07;;
73550;SDS011;61816;53.582;10.096;2022-09-09T07:51:17;13.13;;;7.82;;
73550;SDS011;61816;53.582;10.096;2022-09-09T07:53:48;21.83;;;8.57;;
73550;SDS011;61816;53.582;10.096;2022-09-09T07:56:16;15.95;;;8.27;;
73550;SDS011;61816;53.582;10.096;2022-09-09T07:58:47;13.57;;;6.65;;
73550;SDS011;61816;53.582;10.096;2022-09-09T08:01:15;18.38;;;7.47;;
73550;SDS011;61816;53.582;10.096;2022-09-09T08:03:43;19.60;;;6.93;;
73550;SDS011;61816;53.582;10.096;2022-09-09T08:06:10;11.43;;;7.22;;
73550;SDS011;61816;53.582;10.096;2022-09-09T08:08:37;13.57;;;8.02;;
73550;SDS011;61816;53.582;10.096;2022-09-09T08:11:22;13.23;;;7.57;;
73550;SDS011;61816;53.582;10.096;2022-09-09T08:13:50;24.35;;;8.07;;
73550;SDS011;61816;53.582;10.096;2022-09-09T08:16:17;14.43;;;8.18;;
73550;SDS011;61816;53.582;10.096;2022-09-09T08:19:04;12.18;;;7.78;;
73550;SDS011;61816;53.582;10.096;2022-09-09T08:21:31;14.75;;;7.85;;
73550;SDS011;61816;53.582;10.096;2022-09-09T08:23:59;15.07;;;7.32;;
73550;SDS011;61816;53.582;10.096;2022-09-09T08:26:26;18.30;;;7.93;;
73550;SDS011;61816;53.582;10.096;2022-09-09T08:28:54;12.40;;;7.68;;
73550;SDS011;61816;53.582;10.096;2022-09-09T08:31:23;19.98;;;7.88;;
73550;SDS011;61816;53.582;10.096;2022-09-09T08:33:53;14.93;;;7.30;;
73550;SDS011;61816;53.582;10.096;2022-09-09T08:36:21;19.30;;;7.00;;
73550;SDS011;61816;53.582;10.096;2022-09-09T08:38:50;11.75;;;5.72;;
73550;SDS011;61816;53.582;10.096;2022-09-09T08:43:45;9.93;;;5.20;;
73550;SDS011;61816;53.582;10.096;2022-09-09T08:46:21;11.18;;;5.95;;
73550;SDS011;61816;53.582;10.096;2022-09-09T08:49:13;17.85;;;6.03;;
73550;SDS011;61816;53.582;10.096;2022-09-09T08:51:46;9.02;;;5.75;;
73550;SDS011;61816;53.582;10.096;2022-09-09T08:54:14;15.80;;;5.78;;
73550;SDS011;61816;53.582;10.096;2022-09-09T08:56:40;13.60;;;5.45;;
73550;SDS011;61816;53.582;10.096;2022-09-09T08:59:07;15.77;;;6.60;;
73550;SDS011;61816;53.582;10.096;2022-09-09T09:04:33;14.18;;;5.53;;
73550;SDS011;61816;53.582;10.096;2022-09-09T09:07:15;14.88;;;5.97;;
73550;SDS011;61816;53.582;10.096;2022-09-09T09:12:46;19.75;;;5.25;;
73550;SDS011;61816;53.582;10.096;2022-09-09T09:15:25;10.45;;;5.10;;
73550;SDS011;61816;53.582;10.096;2022-09-09T09:17:55;10.93;;;4.97;;
73550;SDS011;61816;53.582;10.096;2022-09-09T09:20:23;13.18;;;4.05;;
73550;SDS011;61816;53.582;10.096;2022-09-09T09:23:06;9.57;;;4.30;;
73550;SDS011;61816;53.582;10.096;2022-09-09T09:25:40;14.57;;;4.25;;
73550;SDS011;61816;53.582;10.096;2022-09-09T09:28:16;13.18;;;4.15;;
73550;SDS011;61816;53.582;10.096;2022-09-09T09:30:44;11.38;;;3.92;;
73550;SDS011;61816;53.582;10.096;2022-09-09T09:33:33;9.25;;;4.20;;
73550;SDS011;61816;53.582;10.096;2022-09-09T09:36:11;9.07;;;3.30;;
73550;SDS011;61816;53.582;10.096;2022-09-09T09:38:40;8.68;;;3.17;;
73550;SDS011;61816;53.582;10.096;2022-09-09T09:41:28;8.57;;;3.63;;
73550;SDS011;61816;53.582;10.096;2022-09-09T09:46:48;6.72;;;3.40;;
73550;SDS011;61816;53.582;10.096;2022-09-09T09:49:13;7.88;;;3.42;;
73550;SDS011;61816;53.582;10.096;2022-09-09T09:51:38;10.00;;;3.30;;
73550;SDS011;61816;53.582;10.096;2022-09-09T09:54:17;7.95;;;3.40;;
73550;SDS011;61816;53.582;10.096;2022-09-09T09:56:48;11.23;;;4.13;;
73550;SDS011;61816;53.582;10.096;2022-09-09T09:59:20;7.82;;;3.35;;
73550;SDS011;61816;53.582;10.096;2022-09-09T10:01:47;9.25;;;3.40;;
73550;SDS011;61816;53.582;10.096;2022-09-09T10:04:22;6.30;;;3.33;;
73550;SDS011;61816;53.582;10.096;2022-09-09T10:06:49;13.73;;;3.42;;
73550;SDS011;61816;53.582;10.096;2022-09-09T10:09:28;8.57;;;3.08;;
73550;SDS011;61816;53.582;10.096;2022-09-09T10:12:19;9.70;;;3.35;;
73550;SDS011;61816;53.582;10.096;2022-09-09T10:20:50;10.18;;;2.80;;
73550;SDS011;61816;53.582;10.096;2022-09-09T10:26:35;14.38;;;2.78;;
73550;SDS011;61816;53.582;10.096;2022-09-09T10:29:10;4.18;;;1.65;;
73550;SDS011;61816;53.582;10.096;2022-09-09T10:31:41;7.68;;;2.40;;
73550;SDS011;61816;53.582;10.096;2022-09-09T10:34:46;9.93;;;1.88;;
73550;SDS011;61816;53.582;10.096;2022-09-09T10:40:02;7.05;;;2.20;;
73550;SDS011;61816;53.582;10.096;2022-09-09T10:42:45;7.85;;;2.17;;
73550;SDS011;61816;53.582;10.096;2022-09-09T10:56:08;4.55;;;1.63;;
73550;SDS011;61816;53.582;10.096;2022-09-09T10:58:56;6.40;;;2.13;;
73550;SDS011;61816;53.582;10.096;2022-09-09T11:01:41;6.05;;;2.15;;
73550;SDS011;61816;53.582;10.096;2022-09-09T11:04:12;3.33;;;1.17;;
73550;SDS011;61816;53.582;10.096;2022-09-09T11:06:44;6.22;;;1.48;;
73550;SDS011;61816;53.582;10.096;2022-09-09T11:09:18;7.13;;;1.75;;
73550;SDS011;61816;53.582;10.096;2022-09-09T11:11:54;10.98;;;1.83;;
73550;SDS011;61816;53.582;10.096;2022-09-09T11:17:00;3.75;;;1.52;;
73550;SDS011;61816;53.582;10.096;2022-09-09T11:19:35;4.55;;;1.52;;
73550;SDS011;61816;53.582;10.096;2022-09-09T11:30:20;8.35;;;1.48;;
73550;SDS011;61816;53.582;10.096;2022-09-09T11:35:39;6.72;;;1.48;;
73550;SDS011;61816;53.582;10.096;2022-09-09T11:38:13;4.35;;;2.00;;
73550;SDS011;61816;53.582;10.096;2022-09-09T11:40:44;2.47;;;1.38;;
73550;SDS011;61816;53.582;10.096;2022-09-09T11:43:24;6.22;;;1.40;;
73550;SDS011;61816;53.582;10.096;2022-09-09T11:45:54;7.40;;;1.80;;
73550;SDS011;61816;53.582;10.096;2022-09-09T11:48:29;11.52;;;2.25;;
73550;SDS011;61816;53.582;10.096;2022-09-09T11:51:08;8.38;;;1.73;;
73550;SDS011;61816;53.582;10.096;2022-09-09T11:53:36;8.32;;;2.15;;
73550;SDS011;61816;53.582;10.096;2022-09-09T11:59:20;9.93;;;1.65;;
73550;SDS011;61816;53.582;10.096;2022-09-09T12:06:54;7.63;;;2.00;;
73550;SDS011;61816;53.582;10.096;2022-09-09T12:09:28;4.95;;;1.63;;
73550;SDS011;61816;53.582;10.096;2022-09-09T12:14:42;6.90;;;2.20;;
73550;SDS011;61816;53.582;10.096;2022-09-09T12:17:26;6.07;;;1.65;;
73550;SDS011;61816;53.582;10.096;2022-09-09T12:22:39;17.50;;;1.95;;
73550;SDS011;61816;53.582;10.096;2022-09-09T12:25:16;5.90;;;1.70;;
73550;SDS011;61816;53.582;10.096;2022-09-09T12:27:58;9.00;;;1.85;;
73550;SDS011;61816;53.582;10.096;2022-09-09T12:33:36;5.40;;;1.55;;
73550;SDS011;61816;53.582;10.096;2022-09-09T12:36:04;6.82;;;1.73;;
73550;SDS011;61816;53.582;10.096;2022-09-09T12:38:38;13.73;;;2.50;;
73550;SDS011;61816;53.582;10.096;2022-09-09T12:41:05;5.38;;;1.83;;
73550;SDS011;61816;53.582;10.096;2022-09-09T12:43:31;6.80;;;1.98;;
73550;SDS011;61816;53.582;10.096;2022-09-09T12:46:00;10.85;;;1.95;;
73550;SDS011;61816;53.582;10.096;2022-09-09T12:48:31;7.00;;;1.52;;
73550;SDS011;61816;53.582;10.096;2022-09-09T12:50:57;6.05;;;1.90;;
73550;SDS011;61816;53.582;10.096;2022-09-09T12:53:25;7.70;;;1.85;;
73550;SDS011;61816;53.582;10.096;2022-09-09T12:58:24;5.03;;;1.73;;
73550;SDS011;61816;53.582;10.096;2022-09-09T13:00:51;9.02;;;2.17;;
73550;SDS011;61816;53.582;10.096;2022-09-09T13:03:19;6.72;;;1.90;;
73550;SDS011;61816;53.582;10.096;2022-09-09T13:05:48;8.68;;;2.33;;
73550;SDS011;61816;53.582;10.096;2022-09-09T13:08:15;6.90;;;2.47;;
73550;SDS011;61816;53.582;10.096;2022-09-09T13:13:28;6.60;;;2.05;;
73550;SDS011;61816;53.582;10.096;2022-09-09T13:16:00;6.65;;;2.05;;
73550;SDS011;61816;53.582;10.096;2022-09-09T13:18:32;5.43;;;1.88;;
73550;SDS011;61816;53.582;10.096;2022-09-09T13:21:04;5.25;;;2.00;;
73550;SDS011;61816;53.582;10.096;2022-09-09T13:23:31;6.00;;;2.10;;
73550;SDS011;61816;53.582;10.096;2022-09-09T13:25:59;8.48;;;2.13;;
73550;SDS011;61816;53.582;10.096;2022-09-09T13:28:26;23.95;;;3.22;;
73550;SDS011;61816;53.582;10.096;2022-09-09T13:31:19;5.20;;;1.92;;
73550;SDS011;61816;53.582;10.096;2022-09-09T13:33:47;7.53;;;2.13;;
73550;SDS011;61816;53.582;10.096;2022-09-09T13:36:13;6.25;;;2.42;;
73550;SDS011;61816;53.582;10.096;2022-09-09T13:41:33;10.85;;;3.22;;
73550;SDS011;61816;53.582;10.096;2022-09-09T13:44:01;15.23;;;3.47;;
73550;SDS011;61816;53.582;10.096;2022-09-09T13:54:02;26.65;;;6.13;;
73550;SDS011;61816;53.582;10.096;2022-09-09T13:56:35;20.52;;;6.45;;
73550;SDS011;61816;53.582;10.096;2022-09-09T13:59:03;15.05;;;6.50;;
73550;SDS011;61816;53.582;10.096;2022-09-09T14:01:29;29.70;;;8.07;;
73550;SDS011;61816;53.582;10.096;2022-09-09T14:03:55;17.90;;;5.43;;
73550;SDS011;61816;53.582;10.096;2022-09-09T14:06:21;22.00;;;6.82;;
73550;SDS011;61816;53.582;10.096;2022-09-09T14:08:47;24.85;;;6.68;;
73550;SDS011;61816;53.582;10.096;2022-09-09T14:11:15;21.67;;;7.47;;
73550;SDS011;61816;53.582;10.096;2022-09-09T14:13:40;25.75;;;6.45;;
73550;SDS011;61816;53.582;10.096;2022-09-09T14:16:05;19.73;;;8.13;;
73550;SDS011;61816;53.582;10.096;2022-09-09T14:18:31;18.65;;;8.15;;
73550;SDS011;61816;53.582;10.096;2022-09-09T14:20:57;13.48;;;7.00;;
73550;SDS011;61816;53.582;10.096;2022-09-09T14:23:23;17.48;;;7.75;;
73550;SDS011;61816;53.582;10.096;2022-09-09T14:25:49;19.67;;;9.48;;
73550;SDS011;61816;53.582;10.096;2022-09-09T14:28:14;24.98;;;9.75;;
73550;SDS011;61816;53.582;10.096;2022-09-09T14:30:40;13.90;;;7.25;;
73550;SDS011;61816;53.582;10.096;2022-09-09T14:33:08;14.20;;;6.30;;
73550;SDS011;61816;53.582;10.096;2022-09-09T14:35:36;21.98;;;7.00;;
73550;SDS011;61816;53.582;10.096;2022-09-09T14:38:02;17.10;;;6.65;;
73550;SDS011;61816;53.582;10.096;2022-09-09T14:40:28;17.20;;;5.63;;
73550;SDS011;61816;53.582;10.096;2022-09-09T14:42:57;12.23;;;4.80;;
73550;SDS011;61816;53.582;10.096;2022-09-09T14:45:23;21.83;;;5.70;;
73550;SDS011;61816;53.582;10.096;2022-09-09T14:47:50;13.80;;;6.15;;
73550;SDS011;61816;53.582;10.096;2022-09-09T14:50:17;10.32;;;5.38;;
73550;SDS011;61816;53.582;10.096;2022-09-09T14:52:43;16.38;;;5.22;;
73550;SDS011;61816;53.582;10.096;2022-09-09T14:55:08;22.10;;;6.85;;
73550;SDS011;61816;53.582;10.096;2022-09-09T14:57:33;16.55;;;5.82;;
73550;SDS011;61816;53.582;10.096;2022-09-09T15:00:01;12.80;;;5.70;;
73550;SDS011;61816;53.582;10.096;2022-09-09T15:02:28;20.08;;;5.63;;
73550;SDS011;61816;53.582;10.096;2022-09-09T15:04:55;16.55;;;5.55;;
73550;SDS011;61816;53.582;10.096;2022-09-09T15:07:23;10.30;;;4.97;;
73550;SDS011;61816;53.582;10.096;2022-09-09T15:09:49;12.13;;;5.55;;
73550;SDS011;61816;53.582;10.096;2022-09-09T15:12:15;14.48;;;5.18;;
73550;SDS011;61816;53.582;10.096;2022-09-09T15:14:40;16.05;;;5.45;;
73550;SDS011;61816;53.582;10.096;2022-09-09T15:17:06;11.30;;;6.20;;
73550;SDS011;61816;53.582;10.096;2022-09-09T15:19:31;15.95;;;6.05;;
73550;SDS011;61816;53.582;10.096;2022-09-09T15:21:57;15.68;;;5.95;;
73550;SDS011;61816;53.582;10.096;2022-09-09T15:24:24;14.75;;;5.70;;
73550;SDS011;61816;53.582;10.096;2022-09-09T15:26:50;11.70;;;4.60;;
73550;SDS011;61816;53.582;10.096;2022-09-09T15:29:16;8.93;;;3.30;;
73550;SDS011;61816;53.582;10.096;2022-09-09T15:31:41;11.05;;;5.45;;
73550;SDS011;61816;53.582;10.096;2022-09-09T15:34:07;15.75;;;3.95;;
73550;SDS011;61816;53.582;10.096;2022-09-09T15:39:03;8.02;;;2.53;;
73550;SDS011;61816;53.582;10.096;2022-09-09T15:41:31;9.32;;;2.80;;
73550;SDS011;61816;53.582;10.096;2022-09-09T15:43:57;9.32;;;3.20;;
73550;SDS011;61816;53.582;10.096;2022-09-09T15:48:53;7.00;;;2.72;;
73550;SDS011;61816;53.582;10.096;2022-09-09T15:51:20;7.32;;;2.60;;
73550;SDS011;61816;53.582;10.096;2022-09-09T15:53:46;9.27;;;3.30;;
73550;SDS011;61816;53.582;10.096;2022-09-09T15:56:12;7.40;;;2.70;;
73550;SDS011;61816;53.582;10.096;2022-09-09T15:58:38;12.93;;;3.50;;
73550;SDS011;61816;53.582;10.096;2022-09-09T16:01:03;10.18;;;3.78;;
73550;SDS011;61816;53.582;10.096;2022-09-09T16:03:36;10.05;;;4.22;;
73550;SDS011;61816;53.582;10.096;2022-09-09T16:06:03;11.45;;;4.18;;
73550;SDS011;61816;53.582;10.096;2022-09-09T16:08:37;10.95;;;3.55;;
73550;SDS011;61816;53.582;10.096;2022-09-09T16:13:33;11.07;;;4.03;;
73550;SDS011;61816;53.582;10.096;2022-09-09T16:15:59;5.82;;;3.30;;
73550;SDS011;61816;53.582;10.096;2022-09-09T16:18:24;9.55;;;3.75;;
73550;SDS011;61816;53.582;10.096;2022-09-09T16:20:53;6.32;;;2.95;;
73550;SDS011;61816;53.582;10.096;2022-09-09T16:23:19;7.10;;;2.95;;
73550;SDS011;61816;53.582;10.096;2022-09-09T16:25:52;9.52;;;2.80;;
73550;SDS011;61816;53.582;10.096;2022-09-09T16:28:20;8.00;;;2.75;;
73550;SDS011;61816;53.582;10.096;2022-09-09T16:30:46;7.32;;;2.58;;
73550;SDS011;61816;53.582;10.096;2022-09-09T16:33:11;11.07;;;2.72;;
73550;SDS011;61816;53.582;10.096;2022-09-09T16:35:39;14.52;;;2.50;;
73550;SDS011;61816;53.582;10.096;2022-09-09T16:38:06;6.88;;;2.20;;
73550;SDS011;61816;53.582;10.096;2022-09-09T16:40:35;6.30;;;2.47;;
73550;SDS011;61816;53.582;10.096;2022-09-09T16:43:02;5.03;;;2.63;;
73550;SDS011;61816;53.582;10.096;2022-09-09T16:45:27;10.80;;;2.42;;